Time;durP1;ratioP1;P1;durP2;ratioP2;P2;SDS_P1;SDS_P2;PMS_P1;PMS_P2;Temp;Humidity;BMP_temperature;BMP_pressure;BME280_temperature;BME280_humidity;BME280_pressure;Samples;Min_cycle;Max_cycle;Signal;HPM_P1;HPM_P2
2022/08/26 00:00:24;;;;;;;5.05;3.75;;;21.80;80.50;;;21.13;59.68;97048.97;5010416;28;20401;-73
2022/08/26 00:02:51;;;;;;;5.85;3.72;;;21.80;80.60;;;21.13;59.60;97048.97;5010728;28;20412;-73
2022/08/26 00:05:17;;;;;;;4.80;3.97;;;21.70;81.20;;;21.01;60.14;97049.69;5011177;28;20420;-73
2022/08/26 00:07:43;;;;;;;5.72;4.20;;;21.70;81.10;;;21.03;60.06;97044.00;5010981;28;20416;-73
2022/08/26 00:10:10;;;;;;;5.30;4.27;;;21.60;81.20;;;21.06;59.75;97037.94;5010927;28;20816;-73
2022/08/26 00:12:36;;;;;;;7.70;4.03;;;21.70;81.00;;;20.95;60.48;97036.75;5010873;28;20502;-74
2022/08/26 00:15:05;;;;;;;5.57;4.40;;;21.60;81.40;;;20.95;60.49;97036.75;5010475;28;20914;-73
2022/08/26 00:17:31;;;;;;;5.55;3.95;;;21.60;81.60;;;20.96;60.54;97038.34;5010707;28;20408;-73
2022/08/26 00:19:59;;;;;;;5.40;3.97;;;21.60;81.60;;;20.93;60.40;97038.97;5010775;28;20420;-73
2022/08/26 00:22:25;;;;;;;5.27;4.10;;;21.60;81.70;;;20.92;60.37;97034.69;5010736;28;20391;-74
2022/08/26 00:24:51;;;;;;;4.95;4.03;;;21.60;81.90;;;20.87;60.61;97041.06;5010348;28;20408;-73
2022/08/26 00:27:18;;;;;;;4.90;3.80;;;21.50;82.10;;;20.84;60.93;97029.06;5010757;28;20401;-73
2022/08/26 00:29:44;;;;;;;5.85;4.20;;;21.50;82.50;;;20.88;60.95;97039.19;5010592;28;20945;-73
2022/08/26 00:32:11;;;;;;;6.10;4.22;;;21.50;82.50;;;20.99;60.33;97043.84;5010764;28;20409;-73
2022/08/26 00:34:37;;;;;;;8.00;4.35;;;21.60;82.20;;;20.97;60.43;97032.63;5010181;28;20481;-73
2022/08/26 00:37:06;;;;;;;5.20;3.90;;;21.60;82.40;;;20.93;60.75;97034.38;5009842;28;21575;-73
2022/08/26 00:39:32;;;;;;;5.10;3.85;;;21.60;82.50;;;20.88;60.99;97033.78;4992717;28;20428;-73
2022/08/26 00:41:59;;;;;;;4.43;3.65;;;21.60;82.90;;;20.89;61.06;97035.38;5010640;28;20404;-73
2022/08/26 00:44:25;;;;;;;5.40;4.00;;;21.50;82.90;;;20.87;60.68;97033.00;5010021;28;20921;-73
2022/08/26 00:46:58;;;;;;;4.60;3.97;;;21.50;82.60;;;20.84;61.09;97036.34;5010648;28;20401;-73
2022/08/26 00:49:39;;;;;;;7.18;4.07;;;21.50;82.90;;;20.86;60.76;97034.13;5010275;28;20393;-73
2022/08/26 00:52:13;;;;;;;7.65;4.47;;;21.50;82.70;;;20.80;60.69;97036.22;5010677;28;20408;-73
2022/08/26 00:54:45;;;;;;;8.80;4.40;;;21.50;82.90;;;20.81;60.72;97035.09;5010071;28;20397;-74
2022/08/26 00:57:15;;;;;;;4.90;4.32;;;21.40;83.10;;;20.70;61.16;97033.88;5010451;28;20479;-73
2022/08/26 00:59:44;;;;;;;6.28;4.22;;;21.30;84.10;;;20.62;61.73;97039.31;5010355;28;20471;-73
2022/08/26 01:02:10;;;;;;;5.70;4.60;;;21.30;84.10;;;20.57;62.04;97037.59;5010458;28;20397;-74
2022/08/26 01:04:38;;;;;;;5.65;4.20;;;21.20;84.40;;;20.62;61.83;97037.41;5009945;28;20401;-73
2022/08/26 01:07:06;;;;;;;5.10;4.20;;;21.30;84.40;;;20.61;61.85;97041.19;5010349;28;20436;-73
2022/08/26 01:09:32;;;;;;;4.93;4.00;;;21.30;84.50;;;20.54;62.00;97042.81;5010350;28;20937;-73
2022/08/26 01:12:01;;;;;;;5.90;4.15;;;21.20;85.00;;;20.61;61.77;97045.78;5012977;28;20405;-74
2022/08/26 01:14:32;;;;;;;4.67;4.17;;;21.20;84.60;;;20.52;62.49;97045.84;5013569;28;20400;-74
2022/08/26 01:17:01;;;;;;;11.10;4.75;;;21.20;85.20;;;20.62;61.82;97042.00;5014278;28;20819;-73
2022/08/26 01:19:34;;;;;;;9.23;4.77;;;21.20;84.80;;;20.59;61.72;97040.75;5013912;28;20430;-74
2022/08/26 01:22:08;;;;;;;6.32;4.68;;;21.20;84.70;;;20.49;62.20;97041.09;5014193;28;20409;-73
2022/08/26 01:24:37;;;;;;;6.13;4.30;;;21.20;85.10;;;20.38;62.86;97045.25;5013645;28;20483;-74
2022/08/26 01:27:09;;;;;;;7.38;4.80;;;21.10;86.00;;;20.35;62.99;97043.22;5013963;28;20401;-73
2022/08/26 01:29:39;;;;;;;5.25;4.10;;;21.00;86.50;;;20.33;63.22;97042.72;5013812;28;20409;-73
2022/08/26 01:32:09;;;;;;;7.88;4.63;;;21.00;86.70;;;20.32;63.19;97044.63;5013923;28;20393;-73
2022/08/26 01:34:38;;;;;;;5.80;4.88;;;21.00;86.90;;;20.31;63.00;97037.66;5013323;28;20396;-73
2022/08/26 01:37:12;;;;;;;5.93;4.30;;;21.00;86.90;;;20.29;63.26;97041.78;5013909;28;20890;-74
2022/08/26 01:39:40;;;;;;;5.82;4.55;;;21.00;87.20;;;20.25;63.25;97044.31;5019607;23;20453;-74
2022/08/26 01:42:11;;;;;;;4.95;4.13;;;20.90;87.20;;;20.18;63.79;97035.97;4993522;28;20734;-74
2022/08/26 01:44:44;;;;;;;8.73;5.00;;;20.90;87.80;;;20.27;63.39;97041.31;4992990;28;20478;-74
2022/08/26 01:47:12;;;;;;;5.88;4.20;;;20.90;87.70;;;20.18;63.54;97035.19;4994150;28;20403;-74
2022/08/26 01:49:40;;;;;;;4.85;4.20;;;20.90;87.80;;;20.09;64.17;97036.00;5002320;28;20428;-73
2022/08/26 01:52:09;;;;;;;7.03;4.75;;;20.80;88.60;;;20.07;64.27;97037.44;5013656;28;20407;-73
2022/08/26 01:54:35;;;;;;;8.32;4.70;;;20.80;88.90;;;20.17;63.69;97036.28;5011986;28;20484;-73
2022/08/26 01:57:03;;;;;;;6.25;4.28;;;20.80;88.40;;;20.04;64.21;97041.53;5013560;28;20404;-74
2022/08/26 01:59:29;;;;;;;6.73;4.63;;;20.70;89.00;;;20.02;64.46;97043.75;5013412;28;20420;-73
2022/08/26 02:01:56;;;;;;;7.28;4.45;;;20.70;89.40;;;20.07;64.03;97038.19;5013781;28;20405;-73
2022/08/26 02:04:29;;;;;;;6.78;4.43;;;20.80;89.00;;;20.01;64.32;97044.84;5013102;28;20396;-73
2022/08/26 02:06:56;;;;;;;7.00;4.57;;;20.70;89.40;;;19.98;64.50;97044.72;5013401;28;20459;-74
2022/08/26 02:09:23;;;;;;;6.57;4.60;;;20.70;89.60;;;19.98;64.34;97042.84;5013347;28;20409;-74
2022/08/26 02:11:49;;;;;;;6.07;4.78;;;20.70;89.40;;;20.08;63.46;97047.84;5013285;28;20416;-73
2022/08/26 02:14:21;;;;;;;5.60;4.57;;;20.70;88.90;;;19.96;63.99;97045.03;4995289;28;20420;-73
2022/08/26 02:16:51;;;;;;;4.55;3.90;;;20.70;89.10;;;19.88;64.55;97045.06;5013304;28;20543;-74
2022/08/26 02:19:21;;;;;;;5.93;4.05;;;20.60;89.80;;;19.84;64.47;97034.16;5013102;28;20417;-73
2022/08/26 02:21:49;;;;;;;5.22;4.30;;;20.60;89.90;;;19.87;64.15;97036.19;5013144;28;20416;-73
2022/08/26 02:24:19;;;;;;;5.78;4.28;;;20.60;89.50;;;19.84;64.23;97047.59;5012007;28;20867;-73
2022/08/26 02:26:46;;;;;;;6.32;4.25;;;20.50;89.70;;;19.80;64.68;97046.66;5013034;28;20506;-74
2022/08/26 02:29:22;;;;;;;9.77;4.20;;;20.50;90.00;;;19.78;64.62;97050.75;5012992;28;20401;-73
2022/08/26 02:31:48;;;;;;;6.32;4.53;;;20.50;90.00;;;19.81;64.35;97050.13;5013022;28;20404;-74
2022/08/26 02:34:19;;;;;;;4.80;4.13;;;20.50;89.90;;;19.83;64.18;97042.53;5012507;28;20400;-73
2022/08/26 02:36:45;;;;;;;6.03;4.47;;;20.50;89.80;;;19.74;64.42;97047.94;5012872;28;20400;-74
2022/08/26 02:39:11;;;;;;;5.18;4.28;;;20.40;90.00;;;19.70;64.77;97050.44;5012485;28;20448;-74
2022/08/26 02:41:38;;;;;;;5.38;4.15;;;20.40;90.30;;;19.71;64.93;97045.84;5012751;28;20408;-74
2022/08/26 02:44:05;;;;;;;7.40;4.30;;;20.40;90.20;;;19.64;64.82;97042.88;5012381;28;20482;-73
2022/08/26 02:46:33;;;;;;;6.65;4.20;;;20.30;90.40;;;19.63;64.91;97046.66;5012705;28;20447;-74
2022/08/26 02:49:00;;;;;;;4.30;3.70;;;20.30;90.40;;;19.59;65.32;97045.72;5012511;28;20464;-74
2022/08/26 02:51:26;;;;;;;5.27;4.20;;;20.30;90.70;;;19.64;64.99;97038.28;5012734;28;20459;-73
2022/08/26 02:53:52;;;;;;;5.30;4.43;;;20.40;90.50;;;19.59;65.30;97035.00;5012067;28;20814;-74
2022/08/26 02:56:18;;;;;;;6.32;4.50;;;20.30;90.70;;;19.59;65.32;97035.00;5012521;28;20405;-73
2022/08/26 02:58:44;;;;;;;5.63;4.47;;;20.30;90.70;;;19.58;65.37;97036.88;5012396;28;20417;-74
2022/08/26 03:01:20;;;;;;;7.93;4.65;;;20.30;90.70;;;19.58;65.17;97033.41;5012322;28;20405;-74
2022/08/26 03:03:47;;;;;;;5.68;4.57;;;20.30;90.80;;;19.63;65.08;97027.84;5012193;28;20436;-74
2022/08/26 03:06:13;;;;;;;4.90;4.03;;;20.30;90.80;;;19.53;65.37;97030.88;5012340;28;20905;-74
2022/08/26 03:08:39;;;;;;;5.65;4.50;;;20.30;90.90;;;19.51;65.52;97025.84;5012370;28;20437;-74
2022/08/26 03:11:05;;;;;;;5.82;4.82;;;20.30;91.00;;;19.48;65.64;97028.34;5012189;28;20458;-74
2022/08/26 03:13:31;;;;;;;7.05;4.70;;;20.20;91.10;;;19.45;65.71;97029.75;5011793;28;20401;-74
2022/08/26 03:16:00;;;;;;;6.53;4.40;;;20.20;91.20;;;19.43;65.85;97021.22;5012195;28;20412;-74
2022/08/26 03:18:26;;;;;;;6.15;4.75;;;20.20;91.40;;;19.42;65.99;97019.63;5011994;28;20419;-74
2022/08/26 03:20:53;;;;;;;7.10;4.78;;;20.20;91.50;;;19.42;65.95;97011.59;5012053;28;20432;-74
2022/08/26 03:23:19;;;;;;;5.72;4.65;;;20.10;91.40;;;19.47;65.42;97016.06;5011519;28;20404;-74
2022/08/26 03:25:49;;;;;;;7.32;4.95;;;20.20;91.20;;;19.40;65.73;97011.09;5011956;28;20407;-74
2022/08/26 03:28:15;;;;;;;6.88;4.82;;;20.10;91.40;;;19.33;66.13;97022.31;5011924;28;20397;-74
2022/08/26 03:30:41;;;;;;;8.48;4.70;;;20.00;91.70;;;19.31;66.38;97019.19;5011783;28;20416;-73
2022/08/26 03:33:10;;;;;;;7.15;4.90;;;20.10;91.90;;;19.40;65.89;97027.22;5011410;28;20400;-74
2022/08/26 03:35:39;;;;;;;5.60;4.38;;;20.00;91.70;;;19.25;66.44;97019.63;5010893;28;20924;-73
2022/08/26 03:38:07;;;;;;;8.30;5.00;;;20.00;92.00;;;19.21;66.64;97021.38;5011696;28;20855;-74
2022/08/26 03:40:34;;;;;;;6.53;4.78;;;19.90;92.10;;;19.18;66.47;97025.47;5011578;28;20423;-74
2022/08/26 03:43:00;;;;;;;5.20;4.35;;;19.90;92.10;;;19.12;67.22;97025.94;5011198;28;20475;-73
2022/08/26 03:45:26;;;;;;;6.87;4.83;;;19.80;92.60;;;19.12;67.10;97026.75;5011588;28;20396;-74
2022/08/26 03:47:52;;;;;;;8.75;4.95;;;19.90;92.60;;;19.21;66.65;97024.84;5011603;28;20408;-74
2022/08/26 03:50:21;;;;;;;5.97;4.70;;;19.90;92.50;;;19.15;66.79;97023.44;5011535;28;20878;-73
2022/08/26 03:52:48;;;;;;;5.68;4.47;;;19.90;92.50;;;19.11;66.95;97019.78;5011032;28;20882;-74
2022/08/26 03:55:17;;;;;;;7.03;4.77;;;19.90;92.70;;;19.06;67.36;97028.00;5011489;28;20401;-74
2022/08/26 03:57:43;;;;;;;5.70;4.60;;;19.80;92.90;;;19.07;67.22;97023.44;5011395;28;20423;-74
2022/08/26 04:00:14;;;;;;;5.28;4.65;;;19.80;92.80;;;19.07;66.95;97026.09;5011304;28;20983;-74
2022/08/26 04:02:41;;;;;;;7.20;4.70;;;19.80;92.90;;;19.05;67.42;97023.72;5011108;28;20840;-74
2022/08/26 04:05:08;;;;;;;6.10;4.38;;;19.80;92.90;;;19.07;66.82;97023.44;5011291;28;20405;-74
2022/08/26 04:07:34;;;;;;;6.60;4.93;;;19.80;92.80;;;19.00;67.22;97029.25;5011256;28;20403;-74
2022/08/26 04:10:00;;;;;;;6.63;4.85;;;19.70;93.00;;;18.94;67.51;97031.28;5011085;28;20774;-73
2022/08/26 04:12:28;;;;;;;6.10;4.80;;;19.70;93.20;;;18.98;67.26;97028.78;5011185;28;20437;-74
2022/08/26 04:14:54;;;;;;;6.72;4.60;;;19.70;93.10;;;18.95;67.26;97027.50;5010822;28;20401;-74
2022/08/26 04:17:20;;;;;;;7.00;4.77;;;19.70;93.20;;;18.97;67.22;97026.41;5011086;28;20408;-73
2022/08/26 04:19:46;;;;;;;7.00;4.85;;;19.70;93.20;;;18.96;66.95;97022.94;5010907;28;20413;-74
2022/08/26 04:22:12;;;;;;;8.20;4.55;;;19.70;93.10;;;18.89;67.39;97023.38;5011125;28;20413;-74
2022/08/26 04:24:38;;;;;;;5.38;4.00;;;19.60;93.30;;;18.81;67.78;97021.47;5010516;28;20409;-74
2022/08/26 04:27:05;;;;;;;5.57;4.37;;;19.60;93.60;;;18.82;67.89;97024.97;5010972;28;20439;-74
2022/08/26 04:29:32;;;;;;;7.50;4.70;;;19.50;93.70;;;18.78;67.93;97024.81;5010886;28;20488;-74
2022/08/26 04:31:58;;;;;;;5.82;4.07;;;19.50;93.60;;;18.73;68.05;97016.88;5010946;28;20436;-74
2022/08/26 04:34:27;;;;;;;5.38;4.30;;;19.50;93.90;;;18.77;67.88;97017.84;5010470;28;20433;-73
2022/08/26 04:36:54;;;;;;;6.20;4.45;;;19.50;93.80;;;18.73;68.05;97030.28;5011075;28;20941;-74
2022/08/26 04:39:21;;;;;;;5.93;4.78;;;19.50;94.00;;;18.78;67.85;97019.44;5010483;28;20499;-74
2022/08/26 04:41:49;;;;;;;7.18;4.75;;;19.50;93.90;;;18.73;68.12;97022.25;5010935;28;20400;-74
2022/08/26 04:44:16;;;;;;;6.53;4.93;;;19.50;94.00;;;18.78;67.70;97024.00;5010414;28;20397;-74
2022/08/26 04:46:43;;;;;;;5.78;4.70;;;19.50;93.90;;;18.75;67.87;97016.59;5015040;28;20404;-74
2022/08/26 04:49:09;;;;;;;6.13;4.17;;;19.50;93.90;;;18.69;68.13;97023.19;5017241;28;20909;-73
2022/08/26 04:51:36;;;;;;;7.13;4.60;;;19.40;94.20;;;18.72;68.01;97022.59;5017266;28;20979;-73
2022/08/26 04:54:05;;;;;;;5.70;4.30;;;19.40;94.20;;;18.69;68.22;97021.31;5016654;28;20409;-74
2022/08/26 04:56:34;;;;;;;8.13;4.68;;;19.40;94.40;;;18.67;68.50;97023.50;5017189;28;20408;-74
2022/08/26 04:59:01;;;;;;;7.53;4.63;;;19.40;94.50;;;18.67;68.63;97026.19;5017026;28;20416;-74
2022/08/26 05:01:28;;;;;;;6.55;4.70;;;19.40;94.70;;;18.74;68.06;97023.84;5017161;28;20432;-74
2022/08/26 05:03:56;;;;;;;7.15;4.78;;;19.50;94.40;;;18.76;68.05;97024.31;5016776;28;20397;-73
2022/08/26 05:06:22;;;;;;;6.03;4.82;;;19.50;94.90;;;18.80;67.86;97022.56;5017301;28;20419;-73
2022/08/26 05:08:48;;;;;;;7.47;5.03;;;19.50;94.50;;;18.71;68.40;97029.03;5016819;28;20401;-74
2022/08/26 05:11:15;;;;;;;7.03;4.77;;;19.40;94.70;;;18.73;68.40;97032.97;5017165;28;20404;-74
2022/08/26 05:13:41;;;;;;;5.72;4.80;;;19.40;94.80;;;18.78;68.28;97032.06;5016610;28;20400;-73
2022/08/26 05:16:10;;;;;;;5.65;4.88;;;19.40;94.80;;;18.79;68.26;97026.38;5017216;28;20408;-73
2022/08/26 05:18:37;;;;;;;8.93;5.10;;;19.50;94.80;;;18.82;68.24;97033.00;5016844;28;20531;-73
2022/08/26 05:21:05;;;;;;;7.65;4.90;;;19.50;95.00;;;18.77;68.57;97036.63;5016997;28;20400;-74
2022/08/26 05:23:34;;;;;;;6.38;5.10;;;19.40;95.10;;;18.83;68.54;97029.22;5016786;28;20420;-74
2022/08/26 05:26:00;;;;;;;9.40;5.07;;;19.50;95.20;;;18.85;68.43;97027.03;5017028;28;20400;-74
2022/08/26 05:28:28;;;;;;;7.20;5.05;;;19.50;95.20;;;18.80;68.87;97032.50;5016957;28;20411;-74
2022/08/26 05:30:55;;;;;;;8.13;5.10;;;19.50;95.50;;;18.79;69.22;97026.38;5016830;28;20396;-74
2022/08/26 05:33:22;;;;;;;6.80;4.70;;;19.50;95.70;;;18.82;69.42;97035.69;5016432;28;20848;-74
2022/08/26 05:35:48;;;;;;;7.78;5.40;;;19.50;95.80;;;18.84;69.23;97036.16;5016876;28;20397;-74
2022/08/26 05:38:19;;;;;;;6.80;4.88;;;19.50;95.80;;;18.88;69.46;97042.47;5016705;28;20412;-74
2022/08/26 05:40:49;;;;;;;6.97;4.85;;;19.60;95.90;;;18.96;69.46;97033.66;5016634;28;20413;-74
2022/08/26 05:43:16;;;;;;;8.65;5.47;;;19.60;96.10;;;19.02;69.27;97035.06;5016331;28;20759;-74
2022/08/26 05:45:45;;;;;;;7.68;4.70;;;19.70;96.10;;;18.96;69.72;97039.03;5016742;28;20424;-74
2022/08/26 05:48:12;;;;;;;6.55;4.50;;;19.70;96.40;;;18.97;69.75;97043.28;5016945;28;20404;-74
2022/08/26 05:50:41;;;;;;;7.65;5.20;;;19.70;96.50;;;19.02;69.44;97048.50;5016795;28;20401;-74
2022/08/26 05:53:09;;;;;;;7.37;5.07;;;19.70;96.60;;;19.03;69.58;97052.75;5016416;28;20415;-73
2022/08/26 05:55:42;;;;;;;10.13;5.80;;;19.70;96.40;;;19.06;69.57;97051.34;5016694;28;20476;-73
2022/08/26 05:58:09;;;;;;;6.82;5.28;;;19.70;96.40;;;19.07;69.46;97056.41;5013828;28;20640;-74
2022/08/26 06:00:35;;;;;;;8.70;5.55;;;19.80;96.40;;;19.13;69.41;97057.03;5013418;28;20470;-74
2022/08/26 06:03:01;;;;;;;8.50;5.90;;;19.80;96.40;;;19.10;69.47;97060.34;5013050;28;20894;-73
2022/08/26 06:05:27;;;;;;;7.70;5.43;;;19.80;96.50;;;19.05;70.04;97065.88;4996146;28;20520;-73
2022/08/26 06:08:13;;;;;;;8.65;5.80;;;19.70;96.90;;;19.08;69.80;97062.56;5013380;28;20887;-74
2022/08/26 06:10:45;;;;;;;9.27;5.68;;;19.70;96.90;;;19.11;69.84;97056.56;5013350;28;20451;-74
2022/08/26 06:13:11;;;;;;;8.77;5.30;;;19.70;97.00;;;19.07;70.31;97058.31;5012907;28;20432;-74
2022/08/26 06:15:41;;;;;;;10.27;5.45;;;19.70;97.30;;;19.08;70.42;97063.38;5013394;28;20454;-74
2022/08/26 06:18:08;;;;;;;8.98;5.65;;;19.70;97.50;;;19.09;70.41;97066.84;5013320;28;20404;-74
2022/08/26 06:20:35;;;;;;;8.07;5.40;;;19.70;97.60;;;19.11;70.54;97061.91;5013063;28;20543;-74
2022/08/26 06:25:48;;;;;;;6.05;4.80;;;19.70;98.00;;;19.09;71.12;97067.63;5013246;28;20408;-74
2022/08/26 06:28:14;;;;;;;8.30;5.70;;;19.80;98.30;;;19.11;71.19;97068.09;5013111;28;20491;-74
2022/08/26 06:30:40;;;;;;;10.77;5.60;;;19.70;98.40;;;19.15;71.05;97073.63;5012931;28;20758;-74
2022/08/26 06:33:06;;;;;;;12.18;5.72;;;19.80;98.50;;;19.18;71.13;97070.28;5012709;28;20405;-73
2022/08/26 06:35:41;;;;;;;8.05;5.95;;;19.80;98.60;;;19.18;71.19;97072.97;5013065;28;20413;-73
2022/08/26 06:38:08;;;;;;;8.37;5.70;;;19.80;98.70;;;19.18;71.56;97071.09;4995372;28;20774;-74
2022/08/26 06:40:41;;;;;;;10.02;5.18;;;19.80;99.00;;;19.21;71.47;97078.53;5012509;28;20917;-74
2022/08/26 06:43:09;;;;;;;14.10;5.93;;;19.90;99.00;;;19.24;71.46;97072.53;5012382;28;20470;-74
2022/08/26 06:45:37;;;;;;;13.30;5.82;;;19.90;99.10;;;19.27;70.93;97079.16;5012775;28;20412;-73
2022/08/26 06:48:03;;;;;;;11.98;5.80;;;19.90;98.80;;;19.30;70.62;97079.34;5012770;28;20536;-73
2022/08/26 06:50:29;;;;;;;7.90;5.68;;;19.90;98.50;;;19.33;70.18;97084.06;5012533;28;20424;-73
2022/08/26 06:52:55;;;;;;;8.52;5.38;;;19.90;98.20;;;19.39;70.18;97078.56;5012239;28;20891;-74
2022/08/26 06:55:21;;;;;;;8.13;5.60;;;20.00;98.20;;;19.47;70.21;97078.56;5012558;28;20814;-73
2022/08/26 06:57:47;;;;;;;7.22;5.30;;;20.10;98.20;;;19.56;69.86;97079.34;5012546;28;20415;-73
2022/08/26 07:00:17;;;;;;;7.05;5.25;;;20.20;98.00;;;19.66;69.56;97078.25;5012327;28;20424;-74
2022/08/26 07:02:43;;;;;;;9.50;5.22;;;20.30;98.00;;;19.72;69.13;97085.03;5012074;28;20759;-73
2022/08/26 07:05:09;;;;;;;15.05;5.50;;;20.40;97.30;;;19.77;68.89;97084.09;5012229;28;20487;-73
2022/08/26 07:07:35;;;;;;;9.57;5.30;;;20.40;97.10;;;19.82;68.97;97078.56;5012201;28;20486;-74
2022/08/26 07:10:01;;;;;;;15.38;6.38;;;20.50;97.10;;;19.86;68.84;97071.44;5012065;28;20403;-73
2022/08/26 07:12:27;;;;;;;9.25;5.40;;;20.50;97.00;;;19.91;68.74;97076.66;5012043;28;20401;-73
2022/08/26 07:14:54;;;;;;;7.97;5.15;;;20.60;96.90;;;19.98;68.41;97080.44;5011831;28;20479;-74
2022/08/26 07:17:21;;;;;;;7.32;5.40;;;20.60;96.60;;;20.05;67.98;97072.69;5012250;28;20405;-73
2022/08/26 07:19:47;;;;;;;6.93;5.05;;;20.70;96.20;;;20.15;67.58;97087.66;5012047;28;20763;-73
2022/08/26 07:22:14;;;;;;;8.30;5.32;;;20.70;95.90;;;20.23;67.43;97081.47;5012080;28;20404;-73
2022/08/26 07:24:40;;;;;;;5.95;4.63;;;20.90;95.80;;;20.32;66.79;97086.84;4994012;28;20492;-73
2022/08/26 07:27:14;;;;;;;10.20;5.15;;;20.90;95.20;;;20.38;66.48;97080.19;5011915;28;20769;-74
2022/08/26 07:29:43;;;;;;;7.90;4.65;;;21.00;94.70;;;20.46;66.04;97085.56;5011764;28;20771;-73
2022/08/26 07:32:12;;;;;;;10.25;4.65;;;21.10;94.50;;;20.56;65.66;97089.00;5011811;28;20495;-73
2022/08/26 07:34:40;;;;;;;10.15;5.05;;;21.20;94.00;;;20.63;65.02;97083.91;5011371;28;20408;-73
2022/08/26 07:37:06;;;;;;;13.85;5.68;;;21.20;93.50;;;20.70;65.17;97090.38;5011647;28;20404;-73
2022/08/26 07:39:33;;;;;;;9.55;5.30;;;21.30;93.40;;;20.78;65.45;97091.44;5021618;23;20526;-74
2022/08/26 07:42:00;;;;;;;12.97;5.60;;;21.30;93.50;;;20.85;65.28;97086.34;4992180;28;20410;-75
2022/08/26 07:44:26;;;;;;;12.60;5.45;;;21.40;93.40;;;20.94;65.37;97087.09;4991025;28;20406;-75
2022/08/26 07:46:53;;;;;;;11.02;5.28;;;21.50;93.50;;;21.02;65.13;97088.16;4992248;28;20508;-74
2022/08/26 07:49:19;;;;;;;10.10;4.95;;;21.60;93.30;;;21.08;65.11;97089.53;4994528;28;20407;-74
2022/08/26 07:51:48;;;;;;;10.25;5.63;;;21.60;93.20;;;21.15;64.80;97089.81;5011483;28;20412;-74
2022/08/26 07:54:15;;;;;;;7.43;4.97;;;21.70;93.00;;;21.20;64.65;97092.38;4993476;28;20416;-75
2022/08/26 07:56:41;;;;;;;9.80;5.07;;;21.80;92.80;;;21.24;64.52;97094.06;5011463;28;20529;-74
2022/08/26 07:59:07;;;;;;;8.03;4.80;;;21.80;92.60;;;21.25;64.39;97094.84;5011222;28;20428;-74
2022/08/26 08:01:33;;;;;;;9.03;4.47;;;21.80;92.50;;;21.28;64.31;97094.19;5011497;28;20407;-74
2022/08/26 08:03:59;;;;;;;9.45;5.22;;;21.80;92.50;;;21.31;64.37;97095.44;5010911;28;21101;-75
2022/08/26 08:06:26;;;;;;;11.27;5.00;;;21.90;92.40;;;21.39;64.11;97097.28;5011293;28;20416;-74
2022/08/26 08:08:54;;;;;;;12.27;5.05;;;21.90;92.30;;;21.44;64.11;97097.09;5011383;28;20428;-75
2022/08/26 08:11:20;;;;;;;10.90;4.80;;;22.00;92.20;;;21.49;63.90;97092.31;5011112;28;20436;-74
2022/08/26 08:13:47;;;;;;;13.65;4.90;;;22.10;92.00;;;21.53;63.34;97092.44;5010748;28;20901;-74
2022/08/26 08:16:13;;;;;;;6.40;4.50;;;22.10;91.60;;;21.59;62.96;97093.81;5011157;28;20913;-75
2022/08/26 08:18:40;;;;;;;10.83;4.63;;;22.20;91.20;;;21.65;62.53;97091.72;5010933;28;20925;-74
2022/08/26 08:21:06;;;;;;;11.18;4.60;;;22.20;90.90;;;21.71;62.57;97093.09;5010600;28;20412;-74
2022/08/26 08:23:32;;;;;;;8.88;4.85;;;22.30;90.90;;;21.79;62.84;97094.94;5010532;28;20778;-74
2022/08/26 08:26:05;;;;;;;7.97;5.22;;;22.30;91.00;;;21.86;62.98;97098.66;5011086;28;20409;-75
2022/08/26 08:28:31;;;;;;;12.38;5.57;;;22.40;91.10;;;21.96;62.62;97094.75;5010988;28;20890;-75
2022/08/26 08:30:57;;;;;;;11.02;5.88;;;22.50;90.70;;;22.07;61.96;97089.78;5010974;28;20501;-76
2022/08/26 08:33:24;;;;;;;13.73;6.00;;;22.60;90.30;;;22.16;61.60;97095.88;5010393;28;20458;-76
2022/08/26 08:35:51;;;;;;;9.20;4.97;;;22.70;90.00;;;22.27;61.88;97088.94;5010932;28;20817;-76
2022/08/26 08:38:17;;;;;;;12.73;5.45;;;22.80;90.10;;;22.39;60.83;97094.38;5011067;28;20442;-76
2022/08/26 08:40:44;;;;;;;11.65;5.78;;;22.80;88.70;;;22.51;60.55;97088.97;5010702;28;20428;-76
2022/08/26 08:43:16;;;;;;;13.05;5.82;;;23.00;88.10;;;22.63;59.43;97090.94;5010368;28;20404;-76
2022/08/26 08:45:47;;;;;;;7.32;5.10;;;23.10;86.30;;;22.75;59.50;97094.44;5010833;28;20484;-75
2022/08/26 08:48:24;;;;;;;15.27;5.65;;;23.30;86.00;;;22.85;59.23;97098.63;5010754;28;20411;-76
2022/08/26 08:50:54;;;;;;;22.23;6.78;;;23.40;85.90;;;22.95;58.50;97091.97;5010741;28;20492;-76
2022/08/26 08:53:32;;;;;;;10.90;5.65;;;23.50;84.80;;;;;;5010280;28;20412;-76
2022/08/26 08:56:10;;;;;;;8.43;5.68;;;23.60;84.10;;;23.25;58.18;97089.78;5010558;28;20435;-75
2022/08/26 08:58:56;;;;;;;12.02;6.30;;;23.70;83.40;;;23.31;57.25;97088.44;5010616;28;20902;-76
2022/08/26 09:01:41;;;;;;;17.65;6.80;;;23.80;82.10;;;23.34;57.44;97085.06;5010556;28;20404;-76
2022/08/26 09:04:35;;;;;;;12.50;5.97;;;23.80;82.00;;;23.36;57.93;97086.31;5010193;28;20432;-75
2022/08/26 09:07:05;;;;;;;13.13;5.65;;;23.80;82.70;;;23.37;58.10;97079.78;5010545;28;20409;-75
2022/08/26 09:09:36;;;;;;;14.30;6.75;;;23.80;83.00;;;23.38;58.31;97078.63;5010353;28;20770;-76
2022/08/26 09:12:06;;;;;;;10.73;6.32;;;23.90;82.80;;;23.38;57.83;97083.25;5010408;28;20396;-75
2022/08/26 09:14:34;;;;;;;13.68;5.97;;;23.90;82.20;;;23.43;57.73;97091.91;5010075;28;20427;-75
2022/08/26 09:17:11;;;;;;;10.32;6.25;;;23.90;82.10;;;23.45;57.03;97081.56;5010517;28;20432;-76
2022/08/26 09:19:42;;;;;;;11.07;5.00;;;23.90;81.20;;;23.67;56.24;97084.91;5010332;28;20427;-75
2022/08/26 09:22:08;;;;;;;14.48;6.10;;;24.10;80.90;;;23.69;55.65;97082.63;5010652;28;20405;-75
2022/08/26 09:24:37;;;;;;;11.80;6.35;;;24.20;79.00;;;23.74;55.67;97083.19;5010046;28;20401;-76
2022/08/26 09:27:04;;;;;;;9.25;5.20;;;24.20;78.90;;;23.76;55.88;97080.13;5010348;28;20400;-76
2022/08/26 09:29:42;;;;;;;11.45;5.43;;;24.20;79.00;;;23.95;55.17;97076.78;5010417;28;20598;-76
2022/08/26 09:32:20;;;;;;;9.40;5.43;;;24.30;78.30;;;24.08;54.83;97079.09;5010467;28;20404;-75
2022/08/26 09:34:56;;;;;;;11.70;5.68;;;24.50;77.80;;;24.14;54.91;97085.03;5013604;28;20408;-76
2022/08/26 09:37:40;;;;;;;13.43;5.65;;;24.50;77.40;;;24.12;55.12;97077.28;5013967;28;20575;-75
2022/08/26 09:40:27;;;;;;;11.20;5.75;;;24.60;77.90;;;24.20;55.27;97072.88;5008573;28;20418;-75
2022/08/26 09:43:18;;;;;;;9.93;5.38;;;24.60;77.60;;;24.29;54.83;97060.72;5007307;28;20413;-75
2022/08/26 09:45:48;;;;;;;9.82;5.20;;;24.80;77.40;;;24.35;54.61;97063.19;5017599;28;20503;-75
2022/08/26 09:48:27;;;;;;;12.38;6.18;;;24.80;77.10;;;24.40;55.28;97065.63;5013931;28;20453;-74
2022/08/26 09:50:56;;;;;;;13.02;6.53;;;24.80;77.70;;;24.47;54.54;97050.38;5011010;28;20414;-74
2022/08/26 09:53:25;;;;;;;15.38;6.60;;;24.90;77.00;;;24.58;54.84;97050.63;5009652;28;20905;-75
2022/08/26 09:56:13;;;;;;;13.50;6.38;;;25.00;76.90;;;24.76;54.59;97048.34;5013527;28;20762;-74
2022/08/26 09:58:42;;;;;;;10.75;5.70;;;25.10;76.50;;;24.95;54.14;97032.19;5013577;28;20405;-75
2022/08/26 10:01:24;;;;;;;16.73;7.03;;;25.30;76.30;;;25.07;53.25;97026.66;5013298;28;20404;-75
2022/08/26 10:03:50;;;;;;;15.05;7.00;;;25.50;74.80;;;25.20;53.22;97021.88;5013102;28;20401;-74
2022/08/26 10:06:23;;;;;;;18.23;6.93;;;25.60;74.50;;;25.44;50.63;97016.22;5013493;28;20401;-74
2022/08/26 10:08:53;;;;;;;14.35;6.55;;;25.80;72.00;;;25.60;50.00;97018.88;5009314;28;20412;-78
2022/08/26 10:11:28;;;;;;;17.77;6.65;;;26.00;70.20;;;25.64;50.70;97017.00;5013247;28;20910;-74
2022/08/26 10:14:00;;;;;;;14.90;6.55;;;26.00;71.00;;;25.99;48.30;97023.13;5013052;28;20393;-74
2022/08/26 10:16:37;;;;;;;16.20;6.45;;;26.20;69.20;;;26.08;48.46;97020.19;5010988;28;20412;-74
2022/08/26 10:19:07;;;;;;;23.02;6.97;;;26.50;67.80;;;26.08;49.33;97015.56;5010049;28;20925;-74
2022/08/26 10:21:43;;;;;;;24.42;6.97;;;26.50;69.30;;;26.19;48.86;97008.38;5013141;28;20489;-75
2022/08/26 10:24:14;;;;;;;15.10;6.65;;;26.60;68.50;;;26.44;49.11;97006.09;5012739;28;20475;-75
2022/08/26 10:26:47;;;;;;;22.45;7.05;;;26.80;68.30;;;26.67;48.54;97006.09;5013107;28;20504;-75